»·PEaware :: N921VN KDVT-E25

N921VN :: KDVT-E25

FLIGHT INFORMATION

Flight Status: Arrived
Operator: Privately registered:
United States
More flights under this callsign
Pilot: Kevin M. (7)
Aircraft: CESSNA 172 SKYHAWK
(C172)
More flights by this aircraft type
Origin: KDVT Phoenix Deer Valley
United States
Destination: E25 Wickenburg Mun
United States
More flights between these airports :: More routes between these airports
Route:
File this flight plan on PilotEdge
Remarks: alphabet challenge
Altitude:
(Current/Filed)
6,500ft
Speed:
(Current/Filed)
140kts
Departed: 29-Sep-20 10:20 AM
Arrived: 29-Sep-20 10:49 AM
Distance/Time
Traveled:
39nm/0:29
Distance/Time
To Go:
Arrived

Flight Plot

Page will automatically refresh every two minutes.

Flight plan parsing failed; only flown route is shown


Map Options




Map Legend


Flown Route
Filed Route
Departure Airport
Arrival Airport
Navaid (VOR, NDB)
Fix

Horizontal Profiles

Position Reports

Time Latitude Longitude Heading Altitude Ground
Speed
29-Sep-20 09:51 33.686688 -112.081308 246 1465ft 0kts
29-Sep-20 09:52 33.686688 -112.081308 246 1465ft 0kts
29-Sep-20 09:53 33.686688 -112.081308 246 1465ft 0kts
29-Sep-20 09:54 33.686688 -112.081308 246 1465ft 0kts
29-Sep-20 09:55 33.686688 -112.081308 246 1465ft 0kts
29-Sep-20 09:56 33.686688 -112.081308 246 1465ft 0kts
29-Sep-20 09:57 33.686688 -112.081308 246 1465ft 0kts
29-Sep-20 09:58 33.686688 -112.081308 246 1465ft 0kts
29-Sep-20 09:59 33.686688 -112.081308 246 1465ft 0kts
29-Sep-20 10:00 33.686688 -112.081308 246 1465ft 0kts
29-Sep-20 10:01 33.686688 -112.081308 246 1465ft 0kts
29-Sep-20 10:02 33.686688 -112.081308 246 1465ft 0kts
29-Sep-20 10:03 33.686688 -112.081308 246 1465ft 0kts
29-Sep-20 10:04 33.686688 -112.081308 246 1465ft 0kts
29-Sep-20 10:05 33.686688 -112.081308 246 1465ft 0kts
29-Sep-20 10:06 33.686688 -112.081308 246 1465ft 0kts
29-Sep-20 10:07 33.686688 -112.081308 246 1465ft 0kts
29-Sep-20 10:08 33.686688 -112.081308 246 1465ft 0kts
29-Sep-20 10:09 33.686688 -112.081308 246 1465ft 0kts
29-Sep-20 10:10 33.686688 -112.081308 246 1465ft 0kts
29-Sep-20 10:11 33.686688 -112.081308 246 1465ft 0kts
29-Sep-20 10:12 33.686688 -112.081308 246 1465ft 0kts
29-Sep-20 10:13 33.686688 -112.081308 246 1465ft 0kts
29-Sep-20 10:14 33.686688 -112.081308 246 1465ft 0kts
29-Sep-20 10:15 33.686688 -112.081308 246 1465ft 0kts
29-Sep-20 10:16 33.686688 -112.081308 246 1465ft 0kts
29-Sep-20 10:17 33.686688 -112.081308 246 1465ft 0kts
29-Sep-20 10:18 33.686688 -112.081309 246 1465ft 0kts
29-Sep-20 10:19 33.686396 -112.089966 266 1453ft 42kts
29-Sep-20 10:20 33.687728 -112.082045 83 1549ft 70kts
29-Sep-20 10:21 33.697355 -112.067850 332 2148ft 76kts
29-Sep-20 10:22 33.712953 -112.086568 294 2700ft 82kts
29-Sep-20 10:23 33.716532 -112.114251 272 3203ft 88kts
29-Sep-20 10:24 33.719096 -112.144284 275 3761ft 92kts
29-Sep-20 10:25 33.724139 -112.175066 287 4303ft 94kts
29-Sep-20 10:26 33.733844 -112.201346 273 4316ft 91kts
29-Sep-20 10:27 33.721958 -112.233081 290 4179ft 120kts
29-Sep-20 10:28 33.728333 -112.269964 269 4734ft 77kts
29-Sep-20 10:29 33.731171 -112.301963 278 5064ft 98kts
29-Sep-20 10:30 33.728772 -112.333602 277 5658ft 91kts
29-Sep-20 10:31 33.728658 -112.365724 256 6177ft 93kts
29-Sep-20 10:32 33.720393 -112.397096 241 6621ft 99kts
29-Sep-20 10:33 33.713165 -112.431535 261 6793ft 115kts
29-Sep-20 10:34 33.727907 -112.471144 309 6253ft 127kts
29-Sep-20 10:35 33.749741 -112.501248 312 6448ft 118kts
29-Sep-20 10:36 33.774072 -112.528517 316 6509ft 119kts
29-Sep-20 10:37 33.799415 -112.554303 325 6555ft 120kts
29-Sep-20 10:38 33.823039 -112.583226 310 6543ft 122kts
29-Sep-20 10:39 33.843492 -112.615944 316 6485ft 123kts
29-Sep-20 10:40 33.864616 -112.647957 299 6446ft 123kts
29-Sep-20 10:41 33.882354 -112.682716 320 6415ft 120kts
29-Sep-20 10:42 33.907728 -112.709785 316 6365ft 122kts
29-Sep-20 10:43 33.934985 -112.736327 321 5894ft 123kts
29-Sep-20 10:44 33.953790 -112.770404 296 5705ft 125kts
29-Sep-20 10:45 33.963959 -112.811483 291 5234ft 136kts
29-Sep-20 10:46 33.985701 -112.801819 71 4108ft 132kts
29-Sep-20 10:47 33.980742 -112.771388 217 2968ft 108kts
29-Sep-20 10:48 33.970053 -112.795914 179 2349ft 12kts
29-Sep-20 10:49 33.968553 -112.797300 326 2357ft 0kts
29-Sep-20 10:50 33.968553 -112.797300 326 2357ft 0kts

Navigation Log

Ident Type
Flight plan parsing failed, navigation log unavailable